sensor_id;sensor_type;location;lat;lon;timestamp;pressure;altitude;pressure_sealevel;temperature;humidity
59419;BME280;45224;50.904;6.038;2023-04-23T00:01:25;99052.84;;;10.77;95.68
59419;BME280;45224;50.904;6.038;2023-04-23T00:02:56;99059.72;;;10.78;95.25
59419;BME280;45224;50.904;6.038;2023-04-23T00:04:27;99047.72;;;10.74;95.48
59419;BME280;45224;50.904;6.038;2023-04-23T00:06:03;99049.38;;;10.78;95.01
59419;BME280;45224;50.904;6.038;2023-04-23T00:07:35;99049.34;;;10.80;95.11
59419;BME280;45224;50.904;6.038;2023-04-23T00:09:06;99049.34;;;10.82;94.81
59419;BME280;45224;50.904;6.038;2023-04-23T00:10:36;99052.84;;;10.79;94.86
59419;BME280;45224;50.904;6.038;2023-04-23T00:12:07;99049.34;;;10.82;94.61
59419;BME280;45224;50.904;6.038;2023-04-23T00:13:38;99051.03;;;10.86;94.46
59419;BME280;45224;50.904;6.038;2023-04-23T00:15:10;99037.28;;;10.84;93.84
59419;BME280;45224;50.904;6.038;2023-04-23T00:16:41;99047.50;;;10.90;93.90
59419;BME280;45224;50.904;6.038;2023-04-23T00:18:12;99057.00;;;10.89;93.88
59419;BME280;45224;50.904;6.038;2023-04-23T00:19:42;99051.03;;;10.86;93.77
59419;BME280;45224;50.904;6.038;2023-04-23T00:21:13;99041.59;;;10.82;93.95
59419;BME280;45224;50.904;6.038;2023-04-23T00:22:44;99045.97;;;10.75;94.72
59419;BME280;45224;50.904;6.038;2023-04-23T00:24:14;99052.81;;;10.81;94.20
59419;BME280;45224;50.904;6.038;2023-04-23T00:25:45;99045.94;;;10.80;93.82
59419;BME280;45224;50.904;6.038;2023-04-23T00:27:15;99044.22;;;10.77;94.09
59419;BME280;45224;50.904;6.038;2023-04-23T00:28:47;99046.88;;;10.74;94.53
59419;BME280;45224;50.904;6.038;2023-04-23T00:30:17;99036.59;;;10.68;94.12
59419;BME280;45224;50.904;6.038;2023-04-23T00:31:48;99044.38;;;10.66;94.44
59419;BME280;45224;50.904;6.038;2023-04-23T00:33:18;99045.22;;;10.68;94.10
59419;BME280;45224;50.904;6.038;2023-04-23T00:34:49;99048.69;;;10.66;94.25
59419;BME280;45224;50.904;6.038;2023-04-23T00:36:20;99042.72;;;10.59;94.42
59419;BME280;45224;50.904;6.038;2023-04-23T00:37:50;99039.28;;;10.60;94.35
59419;BME280;45224;50.904;6.038;2023-04-23T00:39:21;99035.00;;;10.57;94.29
59419;BME280;45224;50.904;6.038;2023-04-23T00:40:51;99030.72;;;10.55;94.82
59419;BME280;45224;50.904;6.038;2023-04-23T00:42:22;99030.72;;;10.55;94.46
59419;BME280;45224;50.904;6.038;2023-04-23T00:43:53;99029.00;;;10.54;94.41
59419;BME280;45224;50.904;6.038;2023-04-23T00:45:24;99029.84;;;10.54;94.18
59419;BME280;45224;50.904;6.038;2023-04-23T00:46:54;99026.44;;;10.54;94.48
59419;BME280;45224;50.904;6.038;2023-04-23T00:48:25;99016.13;;;10.49;94.28
59419;BME280;45224;50.904;6.038;2023-04-23T00:49:57;99015.28;;;10.49;93.60
59419;BME280;45224;50.904;6.038;2023-04-23T00:51:28;99017.91;;;10.46;94.29
59419;BME280;45224;50.904;6.038;2023-04-23T00:52:59;99020.53;;;10.43;94.93
59419;BME280;45224;50.904;6.038;2023-04-23T00:54:30;99015.34;;;10.44;94.67
59419;BME280;45224;50.904;6.038;2023-04-23T00:56:03;99017.97;;;10.39;95.03
59419;BME280;45224;50.904;6.038;2023-04-23T00:57:37;99012.78;;;10.43;95.08
59419;BME280;45224;50.904;6.038;2023-04-23T00:59:08;99011.91;;;10.44;94.07
59419;BME280;45224;50.904;6.038;2023-04-23T01:00:43;99004.19;;;10.42;93.97
59419;BME280;45224;50.904;6.038;2023-04-23T01:02:16;99013.59;;;10.45;94.38
59419;BME280;45224;50.904;6.038;2023-04-23T01:03:50;99006.78;;;10.40;94.58
59419;BME280;45224;50.904;6.038;2023-04-23T01:05:22;98997.31;;;10.39;94.96
59419;BME280;45224;50.904;6.038;2023-04-23T01:06:53;99014.47;;;10.45;94.37
59419;BME280;45224;50.904;6.038;2023-04-23T01:08:24;99008.53;;;10.40;94.61
59419;BME280;45224;50.904;6.038;2023-04-23T01:09:55;99007.63;;;10.41;94.33
59419;BME280;45224;50.904;6.038;2023-04-23T01:11:26;99002.47;;;10.39;94.43
59419;BME280;45224;50.904;6.038;2023-04-23T01:12:57;99008.53;;;10.38;94.58
59419;BME280;45224;50.904;6.038;2023-04-23T01:14:28;99010.25;;;10.36;95.06
59419;BME280;45224;50.904;6.038;2023-04-23T01:15:58;99003.41;;;10.35;94.49
59419;BME280;45224;50.904;6.038;2023-04-23T01:17:29;99006.81;;;10.37;94.55
59419;BME280;45224;50.904;6.038;2023-04-23T01:19:00;99001.69;;;10.34;94.17
59419;BME280;45224;50.904;6.038;2023-04-23T01:20:31;98999.94;;;10.36;94.01
59419;BME280;45224;50.904;6.038;2023-04-23T01:22:12;98999.09;;;10.34;93.92
59419;BME280;45224;50.904;6.038;2023-04-23T01:23:42;98999.88;;;10.39;93.72
59419;BME280;45224;50.904;6.038;2023-04-23T01:25:13;98997.38;;;10.33;93.89
59419;BME280;45224;50.904;6.038;2023-04-23T01:26:43;98994.78;;;10.35;94.26
59419;BME280;45224;50.904;6.038;2023-04-23T01:28:14;98993.09;;;10.34;93.62
59419;BME280;45224;50.904;6.038;2023-04-23T01:29:46;98990.50;;;10.32;93.89
59419;BME280;45224;50.904;6.038;2023-04-23T01:31:17;98998.25;;;10.29;93.87
59419;BME280;45224;50.904;6.038;2023-04-23T01:32:48;98993.97;;;10.27;93.79
59419;BME280;45224;50.904;6.038;2023-04-23T01:34:19;98998.25;;;10.29;93.90
59419;BME280;45224;50.904;6.038;2023-04-23T01:35:50;98993.94;;;10.30;93.20
59419;BME280;45224;50.904;6.038;2023-04-23T01:37:22;98989.59;;;10.32;92.81
59419;BME280;45224;50.904;6.038;2023-04-23T01:38:54;98997.31;;;10.38;92.14
59419;BME280;45224;50.904;6.038;2023-04-23T01:40:25;98994.78;;;10.33;92.45
59419;BME280;45224;50.904;6.038;2023-04-23T01:41:55;98993.09;;;10.32;92.78
59419;BME280;45224;50.904;6.038;2023-04-23T01:43:27;98993.16;;;10.23;93.43
59419;BME280;45224;50.904;6.038;2023-04-23T01:44:58;98989.63;;;10.30;92.78
59419;BME280;45224;50.904;6.038;2023-04-23T01:46:28;98992.25;;;10.29;93.19
59419;BME280;45224;50.904;6.038;2023-04-23T01:47:59;98988.84;;;10.23;93.06
59419;BME280;45224;50.904;6.038;2023-04-23T01:49:30;98991.41;;;10.25;92.81
59419;BME280;45224;50.904;6.038;2023-04-23T01:51:01;98994.03;;;10.20;92.77
59419;BME280;45224;50.904;6.038;2023-04-23T01:52:32;98993.31;;;10.08;93.33
59419;BME280;45224;50.904;6.038;2023-04-23T01:54:02;98989.84;;;10.12;92.87
59419;BME280;45224;50.904;6.038;2023-04-23T01:55:33;98988.13;;;10.11;92.78
59419;BME280;45224;50.904;6.038;2023-04-23T01:57:08;98982.97;;;10.11;92.60
59419;BME280;45224;50.904;6.038;2023-04-23T01:58:38;98982.13;;;10.09;92.75
59419;BME280;45224;50.904;6.038;2023-04-23T02:00:11;98982.97;;;10.11;92.34
59419;BME280;45224;50.904;6.038;2023-04-23T02:01:45;98982.97;;;10.11;92.33
59419;BME280;45224;50.904;6.038;2023-04-23T02:03:16;98980.38;;;10.11;91.89
59419;BME280;45224;50.904;6.038;2023-04-23T02:04:47;98983.84;;;10.10;92.03
59419;BME280;45224;50.904;6.038;2023-04-23T02:06:19;98985.56;;;10.09;92.47
59419;BME280;45224;50.904;6.038;2023-04-23T02:07:50;98976.09;;;10.10;92.43
59419;BME280;45224;50.904;6.038;2023-04-23T02:09:21;98988.16;;;10.08;92.52
59419;BME280;45224;50.904;6.038;2023-04-23T02:10:51;98983.88;;;10.08;92.23
59419;BME280;45224;50.904;6.038;2023-04-23T02:12:22;98970.16;;;10.01;92.36
59419;BME280;45224;50.904;6.038;2023-04-23T02:13:52;98982.16;;;10.07;92.63
59419;BME280;45224;50.904;6.038;2023-04-23T02:15:23;98976.13;;;10.08;92.11
59419;BME280;45224;50.904;6.038;2023-04-23T02:16:53;98977.78;;;10.11;92.21
59419;BME280;45224;50.904;6.038;2023-04-23T02:18:25;98970.00;;;10.14;91.54
59419;BME280;45224;50.904;6.038;2023-04-23T02:19:55;98978.56;;;10.19;91.50
59419;BME280;45224;50.904;6.038;2023-04-23T02:21:27;98975.97;;;10.19;91.66
59419;BME280;45224;50.904;6.038;2023-04-23T02:22:58;98981.13;;;10.19;91.78
59419;BME280;45224;50.904;6.038;2023-04-23T02:24:29;98975.97;;;10.19;92.34
59419;BME280;45224;50.904;6.038;2023-04-23T02:25:59;98977.72;;;10.17;92.23
59419;BME280;45224;50.904;6.038;2023-04-23T02:27:30;98975.22;;;10.11;92.89
59419;BME280;45224;50.904;6.038;2023-04-23T02:29:02;98979.44;;;10.18;92.65
59419;BME280;45224;50.904;6.038;2023-04-23T02:30:34;98980.28;;;10.20;92.81
59419;BME280;45224;50.904;6.038;2023-04-23T02:32:04;98973.38;;;10.19;93.04
59419;BME280;45224;50.904;6.038;2023-04-23T02:33:35;98978.53;;;10.22;92.33
59419;BME280;45224;50.904;6.038;2023-04-23T02:35:06;98966.50;;;10.21;92.62
59419;BME280;45224;50.904;6.038;2023-04-23T02:36:38;98969.09;;;10.21;93.06
59419;BME280;45224;50.904;6.038;2023-04-23T02:38:09;98975.94;;;10.22;92.68
59419;BME280;45224;50.904;6.038;2023-04-23T02:39:39;98968.22;;;10.20;93.44
59419;BME280;45224;50.904;6.038;2023-04-23T02:41:10;98975.06;;;10.24;93.22
59419;BME280;45224;50.904;6.038;2023-04-23T02:42:41;98969.06;;;10.24;93.04
59419;BME280;45224;50.904;6.038;2023-04-23T02:44:12;98969.06;;;10.24;93.25
59419;BME280;45224;50.904;6.038;2023-04-23T02:45:42;98966.44;;;10.26;93.25
59419;BME280;45224;50.904;6.038;2023-04-23T02:47:14;98964.72;;;10.26;93.51
59419;BME280;45224;50.904;6.038;2023-04-23T02:48:44;98965.56;;;10.25;93.83
59419;BME280;45224;50.904;6.038;2023-04-23T02:50:15;98971.59;;;10.27;93.81
59419;BME280;45224;50.904;6.038;2023-04-23T02:51:46;98970.78;;;10.22;95.01
59419;BME280;45224;50.904;6.038;2023-04-23T02:53:17;98970.81;;;10.19;95.31
59419;BME280;45224;50.904;6.038;2023-04-23T02:54:48;98970.88;;;10.16;95.71
59419;BME280;45224;50.904;6.038;2023-04-23T02:56:18;98957.84;;;10.22;95.04
59419;BME280;45224;50.904;6.038;2023-04-23T02:57:49;98972.47;;;10.26;95.26
59419;BME280;45224;50.904;6.038;2023-04-23T02:59:20;98956.97;;;10.26;95.05
59419;BME280;45224;50.904;6.038;2023-04-23T03:00:50;98971.59;;;10.29;94.47
59419;BME280;45224;50.904;6.038;2023-04-23T03:02:21;98976.78;;;10.26;95.74
59419;BME280;45224;50.904;6.038;2023-04-23T03:03:52;98979.25;;;10.36;94.96
59419;BME280;45224;50.904;6.038;2023-04-23T03:05:23;98971.47;;;10.38;94.90
59419;BME280;45224;50.904;6.038;2023-04-23T03:06:53;98975.78;;;10.40;94.70
59419;BME280;45224;50.904;6.038;2023-04-23T03:08:24;98978.34;;;10.40;94.72
59419;BME280;45224;50.904;6.038;2023-04-23T03:09:54;98968.84;;;10.43;94.85
59419;BME280;45224;50.904;6.038;2023-04-23T03:11:25;98976.59;;;10.43;95.05
59419;BME280;45224;50.904;6.038;2023-04-23T03:12:55;98971.53;;;10.33;95.47
59419;BME280;45224;50.904;6.038;2023-04-23T03:14:26;98975.84;;;10.34;96.33
59419;BME280;45224;50.904;6.038;2023-04-23T03:15:57;98974.13;;;10.33;96.53
59419;BME280;45224;50.904;6.038;2023-04-23T03:17:30;98970.69;;;10.31;96.42
59419;BME280;45224;50.904;6.038;2023-04-23T03:19:00;98971.47;;;10.38;96.26
59419;BME280;45224;50.904;6.038;2023-04-23T03:20:31;98968.94;;;10.35;96.40
59419;BME280;45224;50.904;6.038;2023-04-23T03:22:02;98975.84;;;10.34;97.18
59419;BME280;45224;50.904;6.038;2023-04-23T03:23:35;98967.25;;;10.32;97.56
59419;BME280;45224;50.904;6.038;2023-04-23T03:25:05;98967.19;;;10.40;96.88
59419;BME280;45224;50.904;6.038;2023-04-23T03:26:36;98969.78;;;10.38;96.76
59419;BME280;45224;50.904;6.038;2023-04-23T03:28:06;98969.63;;;10.49;96.25
59419;BME280;45224;50.904;6.038;2023-04-23T03:29:37;98975.63;;;10.53;95.82
59419;BME280;45224;50.904;6.038;2023-04-23T03:31:07;98965.28;;;10.53;96.00
59419;BME280;45224;50.904;6.038;2023-04-23T03:32:38;98966.13;;;10.53;96.08
59419;BME280;45224;50.904;6.038;2023-04-23T03:34:08;98961.06;;;10.46;96.03
59419;BME280;45224;50.904;6.038;2023-04-23T03:35:40;98961.88;;;10.48;96.07
59419;BME280;45224;50.904;6.038;2023-04-23T03:37:15;98960.13;;;10.51;96.37
59419;BME280;45224;50.904;6.038;2023-04-23T03:38:46;98968.69;;;10.55;96.10
59419;BME280;45224;50.904;6.038;2023-04-23T03:40:18;98952.38;;;10.53;95.84
59419;BME280;45224;50.904;6.038;2023-04-23T03:41:52;98960.97;;;10.52;96.19
59419;BME280;45224;50.904;6.038;2023-04-23T03:43:27;98958.34;;;10.56;95.79
59419;BME280;45224;50.904;6.038;2023-04-23T03:45:07;98956.63;;;10.54;96.03
59419;BME280;45224;50.904;6.038;2023-04-23T03:46:38;98954.94;;;10.53;96.44
59419;BME280;45224;50.904;6.038;2023-04-23T03:48:08;98954.88;;;10.56;96.30
59419;BME280;45224;50.904;6.038;2023-04-23T03:49:39;98959.16;;;10.60;96.10
59419;BME280;45224;50.904;6.038;2023-04-23T03:51:09;98959.94;;;10.65;95.32
59419;BME280;45224;50.904;6.038;2023-04-23T03:52:45;98953.13;;;10.61;96.04
59419;BME280;45224;50.904;6.038;2023-04-23T03:54:26;98959.94;;;10.65;95.77
59419;BME280;45224;50.904;6.038;2023-04-23T03:56:23;98953.06;;;10.64;95.93
59419;BME280;45224;50.904;6.038;2023-04-23T03:58:24;98956.47;;;10.68;95.26
59419;BME280;45224;50.904;6.038;2023-04-23T03:59:55;98957.34;;;10.65;95.88
59419;BME280;45224;50.904;6.038;2023-04-23T04:01:27;98953.84;;;10.71;95.45
59419;BME280;45224;50.904;6.038;2023-04-23T04:02:58;98953.91;;;10.66;95.67
59419;BME280;45224;50.904;6.038;2023-04-23T04:04:31;98947.03;;;10.64;95.85
59419;BME280;45224;50.904;6.038;2023-04-23T04:06:01;98951.31;;;10.68;95.96
59419;BME280;45224;50.904;6.038;2023-04-23T04:07:32;98948.72;;;10.66;96.03
59419;BME280;45224;50.904;6.038;2023-04-23T04:09:03;98953.88;;;10.68;96.16
59419;BME280;45224;50.904;6.038;2023-04-23T04:10:34;98954.66;;;10.73;95.57
59419;BME280;45224;50.904;6.038;2023-04-23T04:12:05;98957.31;;;10.68;95.96
59419;BME280;45224;50.904;6.038;2023-04-23T04:13:36;98959.00;;;10.72;95.81
59419;BME280;45224;50.904;6.038;2023-04-23T04:15:07;98948.72;;;10.68;95.71
59419;BME280;45224;50.904;6.038;2023-04-23T04:16:38;98953.00;;;10.67;96.13
59419;BME280;45224;50.904;6.038;2023-04-23T04:18:08;98954.66;;;10.74;95.97
59419;BME280;45224;50.904;6.038;2023-04-23T04:19:39;98957.19;;;10.77;95.18
59419;BME280;45224;50.904;6.038;2023-04-23T04:21:09;98958.09;;;10.73;96.25
59419;BME280;45224;50.904;6.038;2023-04-23T04:22:39;98951.31;;;10.68;96.20
59419;BME280;45224;50.904;6.038;2023-04-23T04:24:10;98950.31;;;10.76;96.05
59419;BME280;45224;50.904;6.038;2023-04-23T04:25:40;98958.88;;;10.80;95.71
59419;BME280;45224;50.904;6.038;2023-04-23T04:27:11;98959.69;;;10.84;95.54
59419;BME280;45224;50.904;6.038;2023-04-23T04:28:42;98946.88;;;10.76;96.11
59419;BME280;45224;50.904;6.038;2023-04-23T04:30:14;98961.38;;;10.85;95.52
59419;BME280;45224;50.904;6.038;2023-04-23T04:31:45;98960.56;;;10.83;95.80
59419;BME280;45224;50.904;6.038;2023-04-23T04:33:15;98954.47;;;10.87;95.79
59419;BME280;45224;50.904;6.038;2023-04-23T04:34:46;98957.97;;;10.83;96.54
59419;BME280;45224;50.904;6.038;2023-04-23T04:36:16;98965.69;;;10.86;95.68
59419;BME280;45224;50.904;6.038;2023-04-23T04:37:47;98965.66;;;10.87;95.58
59419;BME280;45224;50.904;6.038;2023-04-23T04:39:19;98960.53;;;10.86;96.40
59419;BME280;45224;50.904;6.038;2023-04-23T04:40:49;98963.06;;;10.89;96.31
59419;BME280;45224;50.904;6.038;2023-04-23T04:42:20;98963.94;;;10.86;96.32
59419;BME280;45224;50.904;6.038;2023-04-23T04:43:51;98954.53;;;10.84;97.01
59419;BME280;45224;50.904;6.038;2023-04-23T04:45:21;98962.16;;;10.91;96.47
59419;BME280;45224;50.904;6.038;2023-04-23T04:46:53;98970.81;;;10.89;96.90
59419;BME280;45224;50.904;6.038;2023-04-23T04:48:23;98956.19;;;10.86;96.89
59419;BME280;45224;50.904;6.038;2023-04-23T04:49:54;98957.91;;;10.89;96.57
59419;BME280;45224;50.904;6.038;2023-04-23T04:51:26;98954.38;;;10.93;96.15
59419;BME280;45224;50.904;6.038;2023-04-23T04:52:57;98958.69;;;10.92;96.49
59419;BME280;45224;50.904;6.038;2023-04-23T04:54:28;98950.06;;;10.95;95.66
59419;BME280;45224;50.904;6.038;2023-04-23T04:55:58;98962.88;;;11.00;95.97
59419;BME280;45224;50.904;6.038;2023-04-23T04:57:28;98942.34;;;10.92;96.16
59419;BME280;45224;50.904;6.038;2023-04-23T04:58:59;98961.19;;;11.00;96.13
59419;BME280;45224;50.904;6.038;2023-04-23T05:00:30;98959.47;;;10.99;96.26
59419;BME280;45224;50.904;6.038;2023-04-23T05:02:00;98955.97;;;11.03;96.09
59419;BME280;45224;50.904;6.038;2023-04-23T05:03:31;98955.09;;;11.01;96.21
59419;BME280;45224;50.904;6.038;2023-04-23T05:05:01;98952.53;;;11.01;96.07
59419;BME280;45224;50.904;6.038;2023-04-23T05:06:32;98955.19;;;10.98;96.08
59419;BME280;45224;50.904;6.038;2023-04-23T05:08:03;98961.03;;;11.09;95.34
59419;BME280;45224;50.904;6.038;2023-04-23T05:09:33;98959.31;;;11.08;95.85
59419;BME280;45224;50.904;6.038;2023-04-23T05:11:04;98967.00;;;11.14;95.13
59419;BME280;45224;50.904;6.038;2023-04-23T05:12:34;98964.53;;;11.05;96.17
59419;BME280;45224;50.904;6.038;2023-04-23T05:14:06;98962.72;;;11.10;95.54
59419;BME280;45224;50.904;6.038;2023-04-23T05:15:36;98973.00;;;11.17;95.25
59419;BME280;45224;50.904;6.038;2023-04-23T05:17:07;98957.59;;;11.07;96.05
59419;BME280;45224;50.904;6.038;2023-04-23T05:18:38;98963.50;;;11.15;95.67
59419;BME280;45224;50.904;6.038;2023-04-23T05:20:09;98972.13;;;11.18;95.43
59419;BME280;45224;50.904;6.038;2023-04-23T05:21:40;98970.34;;;11.21;95.22
59419;BME280;45224;50.904;6.038;2023-04-23T05:23:11;98967.88;;;11.12;95.46
59419;BME280;45224;50.904;6.038;2023-04-23T05:24:42;98972.09;;;11.19;95.60
59419;BME280;45224;50.904;6.038;2023-04-23T05:26:12;98971.19;;;11.22;95.18
59419;BME280;45224;50.904;6.038;2023-04-23T05:27:42;98973.72;;;11.25;95.01
59419;BME280;45224;50.904;6.038;2023-04-23T05:29:13;98971.13;;;11.25;95.33
59419;BME280;45224;50.904;6.038;2023-04-23T05:30:49;98974.50;;;11.30;95.02
59419;BME280;45224;50.904;6.038;2023-04-23T05:32:19;98969.28;;;11.33;94.91
59419;BME280;45224;50.904;6.038;2023-04-23T05:33:50;98965.88;;;11.31;94.88
59419;BME280;45224;50.904;6.038;2023-04-23T05:35:20;98965.88;;;11.31;95.17
59419;BME280;45224;50.904;6.038;2023-04-23T05:36:51;98968.44;;;11.32;95.38
59419;BME280;45224;50.904;6.038;2023-04-23T05:38:21;98969.38;;;11.27;95.40
59419;BME280;45224;50.904;6.038;2023-04-23T05:39:52;98963.31;;;11.28;95.47
59419;BME280;45224;50.904;6.038;2023-04-23T05:41:22;98961.56;;;11.30;95.03
59419;BME280;45224;50.904;6.038;2023-04-23T05:42:52;98973.47;;;11.42;94.70
59419;BME280;45224;50.904;6.038;2023-04-23T05:44:23;98969.13;;;11.42;94.81
59419;BME280;45224;50.904;6.038;2023-04-23T05:45:54;98965.91;;;11.28;95.38
59419;BME280;45224;50.904;6.038;2023-04-23T05:47:24;98971.00;;;11.34;95.38
59419;BME280;45224;50.904;6.038;2023-04-23T05:48:55;98971.00;;;11.34;94.83
59419;BME280;45224;50.904;6.038;2023-04-23T05:50:26;98958.03;;;11.36;94.50
59419;BME280;45224;50.904;6.038;2023-04-23T05:51:57;98967.44;;;11.40;94.70
59419;BME280;45224;50.904;6.038;2023-04-23T05:53:28;98958.84;;;11.39;94.38
59419;BME280;45224;50.904;6.038;2023-04-23T05:54:59;98967.41;;;11.41;94.27
59419;BME280;45224;50.904;6.038;2023-04-23T05:56:29;98969.22;;;11.36;94.64
59419;BME280;45224;50.904;6.038;2023-04-23T05:57:59;98966.59;;;11.39;94.41
59419;BME280;45224;50.904;6.038;2023-04-23T05:59:30;98965.69;;;11.43;95.06
59419;BME280;45224;50.904;6.038;2023-04-23T06:01:01;98956.91;;;11.50;94.76
59419;BME280;45224;50.904;6.038;2023-04-23T06:02:32;98968.66;;;11.70;93.77
59419;BME280;45224;50.904;6.038;2023-04-23T06:04:03;98970.19;;;11.80;93.46
59419;BME280;45224;50.904;6.038;2023-04-23T06:05:33;98966.69;;;11.84;93.18
59419;BME280;45224;50.904;6.038;2023-04-23T06:07:05;98969.94;;;11.96;93.14
59419;BME280;45224;50.904;6.038;2023-04-23T06:08:35;98968.19;;;11.98;92.17
59419;BME280;45224;50.904;6.038;2023-04-23T06:10:06;98964.41;;;12.14;91.67
59419;BME280;45224;50.904;6.038;2023-04-23T06:11:37;98975.56;;;12.19;91.63
59419;BME280;45224;50.904;6.038;2023-04-23T06:13:07;98972.97;;;12.19;91.38
59419;BME280;45224;50.904;6.038;2023-04-23T06:14:40;98968.53;;;12.24;91.33
59419;BME280;45224;50.904;6.038;2023-04-23T06:16:10;98972.81;;;12.26;90.64
59419;BME280;45224;50.904;6.038;2023-04-23T06:17:40;98976.13;;;12.34;90.69
59419;BME280;45224;50.904;6.038;2023-04-23T06:19:11;98973.44;;;12.38;90.18
59419;BME280;45224;50.904;6.038;2023-04-23T06:20:41;98976.69;;;12.48;89.86
59419;BME280;45224;50.904;6.038;2023-04-23T06:22:12;98970.56;;;12.52;89.77
59419;BME280;45224;50.904;6.038;2023-04-23T06:23:42;98962.78;;;12.52;89.40
59419;BME280;45224;50.904;6.038;2023-04-23T06:25:13;98975.56;;;12.62;88.99
59419;BME280;45224;50.904;6.038;2023-04-23T06:26:43;98965.97;;;12.65;88.57
59419;BME280;45224;50.904;6.038;2023-04-23T06:28:19;98964.06;;;12.73;87.74
59419;BME280;45224;50.904;6.038;2023-04-23T06:30:12;98968.09;;;12.85;87.42
59419;BME280;45224;50.904;6.038;2023-04-23T06:31:43;98956.69;;;12.94;87.21
59419;BME280;45224;50.904;6.038;2023-04-23T06:33:14;98952.13;;;13.04;86.70
59419;BME280;45224;50.904;6.038;2023-04-23T06:34:44;98953.09;;;13.00;85.59
59419;BME280;45224;50.904;6.038;2023-04-23T06:36:15;98955.47;;;13.09;84.78
59419;BME280;45224;50.904;6.038;2023-04-23T06:37:46;98950.84;;;13.22;84.98
59419;BME280;45224;50.904;6.038;2023-04-23T06:39:16;98945.50;;;13.28;84.64
59419;BME280;45224;50.904;6.038;2023-04-23T06:40:47;98941.94;;;13.32;83.47
59419;BME280;45224;50.904;6.038;2023-04-23T06:42:17;98945.88;;;13.50;83.92
59419;BME280;45224;50.904;6.038;2023-04-23T06:43:53;98940.50;;;13.56;83.56
59419;BME280;45224;50.904;6.038;2023-04-23T06:45:25;98943.00;;;13.59;81.69
59419;BME280;45224;50.904;6.038;2023-04-23T06:46:56;98948.81;;;13.69;82.24
59419;BME280;45224;50.904;6.038;2023-04-23T06:48:26;98944.00;;;13.88;81.66
59419;BME280;45224;50.904;6.038;2023-04-23T06:49:57;98942.16;;;13.92;81.11
59419;BME280;45224;50.904;6.038;2023-04-23T06:51:29;98931.56;;;13.99;80.54
59419;BME280;45224;50.904;6.038;2023-04-23T06:53:01;98940.72;;;14.13;80.28
59419;BME280;45224;50.904;6.038;2023-04-23T06:54:31;98936.09;;;14.22;80.94
59419;BME280;45224;50.904;6.038;2023-04-23T06:56:02;98940.25;;;14.30;79.46
59419;BME280;45224;50.904;6.038;2023-04-23T06:57:32;98943.44;;;14.39;78.70
59419;BME280;45224;50.904;6.038;2023-04-23T06:59:03;98939.75;;;14.47;77.58
59419;BME280;45224;50.904;6.038;2023-04-23T07:00:35;98941.47;;;14.48;76.08
59419;BME280;45224;50.904;6.038;2023-04-23T07:02:06;98939.38;;;14.59;75.91
59419;BME280;45224;50.904;6.038;2023-04-23T07:03:36;98931.69;;;14.56;75.91
59419;BME280;45224;50.904;6.038;2023-04-23T07:05:07;98934.03;;;14.65;75.33
59419;BME280;45224;50.904;6.038;2023-04-23T07:06:39;98928.25;;;14.84;75.42
59419;BME280;45224;50.904;6.038;2023-04-23T07:08:10;98928.16;;;14.87;74.29
59419;BME280;45224;50.904;6.038;2023-04-23T07:09:40;98922.03;;;14.89;72.48
59419;BME280;45224;50.904;6.038;2023-04-23T07:11:11;98923.00;;;15.13;73.80
59419;BME280;45224;50.904;6.038;2023-04-23T07:12:41;98927.97;;;15.21;73.20
59419;BME280;45224;50.904;6.038;2023-04-23T07:14:12;98920.66;;;15.32;72.92
59419;BME280;45224;50.904;6.038;2023-04-23T07:15:42;98923.41;;;15.28;71.89
59419;BME280;45224;50.904;6.038;2023-04-23T07:17:12;98928.47;;;15.32;71.39
59419;BME280;45224;50.904;6.038;2023-04-23T07:18:43;98923.84;;;15.41;70.16
59419;BME280;45224;50.904;6.038;2023-04-23T07:20:14;98910.09;;;15.36;69.35
59419;BME280;45224;50.904;6.038;2023-04-23T07:21:45;98913.84;;;15.54;70.42
59419;BME280;45224;50.904;6.038;2023-04-23T07:23:15;98910.91;;;15.63;71.02
59419;BME280;45224;50.904;6.038;2023-04-23T07:24:45;98917.22;;;15.82;70.28
59419;BME280;45224;50.904;6.038;2023-04-23T07:26:16;98915.06;;;15.94;69.13
59419;BME280;45224;50.904;6.038;2023-04-23T07:27:46;98918.59;;;15.93;67.92
59419;BME280;45224;50.904;6.038;2023-04-23T07:29:17;98922.25;;;15.87;66.93
59419;BME280;45224;50.904;6.038;2023-04-23T07:30:47;98912.59;;;16.14;67.31
59419;BME280;45224;50.904;6.038;2023-04-23T07:32:18;98918.50;;;16.19;66.54
59419;BME280;45224;50.904;6.038;2023-04-23T07:33:51;98912.94;;;16.29;67.47
59419;BME280;45224;50.904;6.038;2023-04-23T07:35:21;98919.50;;;16.39;66.47
59419;BME280;45224;50.904;6.038;2023-04-23T07:36:52;98914.06;;;16.45;65.84
59419;BME280;45224;50.904;6.038;2023-04-23T07:38:22;98904.72;;;16.61;66.80
59419;BME280;45224;50.904;6.038;2023-04-23T07:39:53;98908.25;;;16.60;65.06
59419;BME280;45224;50.904;6.038;2023-04-23T07:41:23;98908.47;;;16.78;66.08
59419;BME280;45224;50.904;6.038;2023-04-23T07:42:54;98901.75;;;16.94;64.86
59419;BME280;45224;50.904;6.038;2023-04-23T07:44:24;98898.78;;;17.04;65.28
59419;BME280;45224;50.904;6.038;2023-04-23T07:45:55;98908.88;;;17.11;63.76
59419;BME280;45224;50.904;6.038;2023-04-23T07:47:25;98910.06;;;17.04;62.40
59419;BME280;45224;50.904;6.038;2023-04-23T07:48:56;98907.78;;;17.17;62.56
59419;BME280;45224;50.904;6.038;2023-04-23T07:50:26;98903.13;;;17.46;62.79
59419;BME280;45224;50.904;6.038;2023-04-23T07:51:57;98902.31;;;17.64;62.09
59419;BME280;45224;50.904;6.038;2023-04-23T07:53:27;98898.38;;;17.75;60.37
59419;BME280;45224;50.904;6.038;2023-04-23T07:54:58;98897.16;;;17.83;61.40
59419;BME280;45224;50.904;6.038;2023-04-23T07:56:28;98903.34;;;18.01;60.83
59419;BME280;45224;50.904;6.038;2023-04-23T07:58:01;98885.25;;;17.97;58.67
59419;BME280;45224;50.904;6.038;2023-04-23T07:59:32;98891.47;;;18.13;60.00
59419;BME280;45224;50.904;6.038;2023-04-23T08:01:02;98891.69;;;18.09;58.60
59419;BME280;45224;50.904;6.038;2023-04-23T08:02:32;98895.75;;;18.35;59.79
59419;BME280;45224;50.904;6.038;2023-04-23T08:04:04;98892.97;;;18.19;57.36